createdAt,value
2023-08-24T00:00:16.864Z,5.13
2023-08-24T00:02:43.298Z,5.19
2023-08-24T00:05:09.735Z,5.16
2023-08-24T00:07:36.100Z,5.55
2023-08-24T00:10:02.485Z,5.25
2023-08-24T00:12:28.865Z,5.15
2023-08-24T00:14:55.268Z,5.51
2023-08-24T00:17:21.647Z,5.40
2023-08-24T00:19:48.043Z,5.31
2023-08-24T00:22:14.416Z,5.33
2023-08-24T00:24:40.811Z,5.38
2023-08-24T00:27:07.205Z,5.42
2023-08-24T00:29:33.610Z,5.22
2023-08-24T00:31:59.978Z,5.47
2023-08-24T00:34:26.353Z,5.30
2023-08-24T00:36:52.743Z,5.36
2023-08-24T00:39:19.136Z,5.28
2023-08-24T00:41:45.525Z,5.15
2023-08-24T00:44:11.895Z,5.18
2023-08-24T00:46:38.274Z,5.07
2023-08-24T00:49:04.641Z,4.92
2023-08-24T00:51:31.028Z,5.17
2023-08-24T00:53:57.446Z,5.09
2023-08-24T00:56:23.847Z,5.01
2023-08-24T00:58:50.243Z,5.04
2023-08-24T01:01:16.730Z,4.97
2023-08-24T01:03:43.175Z,5.09
2023-08-24T01:06:09.559Z,5.32
2023-08-24T01:08:35.949Z,5.38
2023-08-24T01:11:02.334Z,5.59
2023-08-24T01:13:28.724Z,5.46
2023-08-24T01:15:55.094Z,5.48
2023-08-24T01:18:21.464Z,5.51
2023-08-24T01:20:47.834Z,5.20
2023-08-24T01:23:14.219Z,5.74
2023-08-24T01:25:40.610Z,5.61
2023-08-24T01:28:07.001Z,5.37
2023-08-24T01:30:33.367Z,5.64
2023-08-24T01:32:59.818Z,5.60
2023-08-24T01:35:26.241Z,5.42
2023-08-24T01:37:52.819Z,5.47
2023-08-24T01:40:19.246Z,5.53
2023-08-24T01:42:45.633Z,5.83
2023-08-24T01:45:12.047Z,5.27
2023-08-24T01:47:38.455Z,5.26
2023-08-24T01:50:04.855Z,5.38
2023-08-24T01:52:31.239Z,4.97
2023-08-24T01:54:57.643Z,5.37
2023-08-24T01:57:24.060Z,5.38
2023-08-24T01:59:50.450Z,5.43
2023-08-24T02:02:16.809Z,5.40
2023-08-24T02:04:43.190Z,5.23
2023-08-24T02:07:09.570Z,5.42
2023-08-24T02:09:35.950Z,5.45
2023-08-24T02:12:02.347Z,5.28
2023-08-24T02:14:28.743Z,5.59
2023-08-24T02:16:55.162Z,5.11
2023-08-24T02:19:21.550Z,5.36
2023-08-24T02:21:47.938Z,5.27
2023-08-24T02:24:14.308Z,5.23
2023-08-24T02:26:40.695Z,5.19
2023-08-24T02:29:07.075Z,5.03
2023-08-24T02:31:33.498Z,5.40
2023-08-24T02:33:59.926Z,5.34
2023-08-24T02:36:26.308Z,5.06
2023-08-24T02:38:52.706Z,5.34
2023-08-24T02:41:19.094Z,5.29
2023-08-24T02:43:47.455Z,5.41
2023-08-24T02:46:14.164Z,5.15
2023-08-24T02:48:40.557Z,5.32
2023-08-24T02:51:06.973Z,5.27
2023-08-24T02:53:33.390Z,5.45
2023-08-24T02:55:59.782Z,5.42
2023-08-24T02:58:26.150Z,5.72
2023-08-24T03:00:52.545Z,5.64
2023-08-24T03:03:18.952Z,5.81
2023-08-24T03:05:45.322Z,5.63
2023-08-24T03:08:11.708Z,5.46
2023-08-24T03:10:38.080Z,5.24
2023-08-24T03:13:04.465Z,5.20
2023-08-24T03:15:30.857Z,5.23
2023-08-24T03:17:57.347Z,5.39
2023-08-24T03:20:23.800Z,5.11
2023-08-24T03:22:50.178Z,5.46
2023-08-24T03:25:16.574Z,5.65
2023-08-24T03:27:42.959Z,5.80
2023-08-24T03:30:09.349Z,5.81
2023-08-24T03:32:35.798Z,5.46
2023-08-24T03:35:02.247Z,5.57
2023-08-24T03:37:28.651Z,5.64
2023-08-24T03:39:55.031Z,5.47
2023-08-24T03:42:21.419Z,5.16
2023-08-24T03:44:47.815Z,5.81
2023-08-24T03:47:14.198Z,5.64
2023-08-24T03:49:40.569Z,5.77
2023-08-24T03:52:06.958Z,5.45
2023-08-24T03:54:33.343Z,6.08
2023-08-24T03:56:59.729Z,5.40
2023-08-24T03:59:26.108Z,5.78
2023-08-24T04:01:52.484Z,5.77
2023-08-24T04:04:18.860Z,5.84
2023-08-24T04:06:45.241Z,5.83
2023-08-24T04:09:11.627Z,5.96
2023-08-24T04:11:37.989Z,5.84
2023-08-24T04:14:04.368Z,5.97
2023-08-24T04:16:30.750Z,6.15
2023-08-24T04:18:57.126Z,6.01
2023-08-24T04:21:23.529Z,5.63
2023-08-24T04:23:49.897Z,5.45
2023-08-24T04:26:16.255Z,5.59
2023-08-24T04:28:42.630Z,5.48
2023-08-24T04:31:09.019Z,5.78
2023-08-24T04:33:35.437Z,5.76
2023-08-24T04:36:01.836Z,5.53
2023-08-24T04:38:28.229Z,5.45
2023-08-24T04:40:54.630Z,5.56
2023-08-24T04:43:21.025Z,5.88
2023-08-24T04:45:47.398Z,5.93
2023-08-24T04:48:13.796Z,5.82
2023-08-24T04:50:40.251Z,5.63
2023-08-24T04:53:06.645Z,5.59
2023-08-24T04:55:33.028Z,5.88
2023-08-24T04:57:59.399Z,5.57
2023-08-24T05:00:25.787Z,5.84
2023-08-24T05:02:52.256Z,5.49
2023-08-24T05:05:18.649Z,5.90
2023-08-24T05:07:45.040Z,5.82
2023-08-24T05:10:11.436Z,5.83
2023-08-24T05:12:37.811Z,5.79
2023-08-24T05:15:04.180Z,5.82
2023-08-24T05:17:30.564Z,6.07
2023-08-24T05:19:56.983Z,6.74
2023-08-24T05:22:23.368Z,6.50
2023-08-24T05:24:49.767Z,6.53
2023-08-24T05:27:16.159Z,6.71
2023-08-24T05:29:42.557Z,6.80
2023-08-24T05:32:08.933Z,6.36
2023-08-24T05:34:35.305Z,6.30
2023-08-24T05:37:01.667Z,6.32
2023-08-24T05:39:28.087Z,6.08
2023-08-24T05:41:54.496Z,6.12
2023-08-24T05:44:20.888Z,5.99
2023-08-24T05:46:47.296Z,6.45
2023-08-24T05:49:13.681Z,6.93
2023-08-24T05:51:40.061Z,6.80
2023-08-24T05:54:06.449Z,6.79
2023-08-24T05:56:32.813Z,7.11
2023-08-24T05:58:59.195Z,6.65
2023-08-24T06:01:25.600Z,6.73
2023-08-24T06:03:52.054Z,6.95
2023-08-24T06:06:18.450Z,6.47
2023-08-24T06:08:44.813Z,6.35
2023-08-24T06:11:11.194Z,6.39
2023-08-24T06:13:37.590Z,6.29
2023-08-24T06:16:03.991Z,6.24
2023-08-24T06:18:30.401Z,6.36
2023-08-24T06:20:56.935Z,6.42
2023-08-24T06:23:23.331Z,6.80
2023-08-24T06:25:49.789Z,6.65
2023-08-24T06:28:16.204Z,6.75
2023-08-24T06:30:42.580Z,6.96
2023-08-24T06:33:09.010Z,7.57
2023-08-24T06:35:35.403Z,7.36
2023-08-24T06:38:01.788Z,7.07
2023-08-24T06:40:28.208Z,6.94
2023-08-24T06:42:54.608Z,6.99
2023-08-24T06:45:21.017Z,6.88
2023-08-24T06:47:47.407Z,6.75
2023-08-24T06:50:13.829Z,6.44
2023-08-24T06:52:40.200Z,6.28
2023-08-24T06:55:06.595Z,6.78
2023-08-24T06:57:32.977Z,7.88
2023-08-24T06:59:59.340Z,7.86
2023-08-24T07:02:25.802Z,7.80
2023-08-24T07:04:52.260Z,8.06
2023-08-24T07:07:18.663Z,7.73
2023-08-24T07:09:45.029Z,7.79
2023-08-24T07:12:11.467Z,7.53
2023-08-24T07:14:37.896Z,8.03
2023-08-24T07:17:04.279Z,7.67
2023-08-24T07:19:30.676Z,8.03
2023-08-24T07:21:57.085Z,7.86
2023-08-24T07:24:34.843Z,7.69
2023-08-24T07:27:09.825Z,7.77
2023-08-24T07:29:36.209Z,7.46
2023-08-24T07:32:02.716Z,7.78
2023-08-24T07:34:29.238Z,7.96
2023-08-24T07:36:55.611Z,7.31
2023-08-24T07:39:22.021Z,7.26
2023-08-24T07:41:48.398Z,7.49
2023-08-24T07:44:14.782Z,7.42
2023-08-24T07:46:41.218Z,6.83
2023-08-24T07:49:07.619Z,7.09
2023-08-24T07:51:34.020Z,6.86
2023-08-24T07:54:00.429Z,6.88
2023-08-24T07:56:26.809Z,7.01
2023-08-24T07:58:53.191Z,7.11
2023-08-24T08:01:19.603Z,7.72
2023-08-24T08:03:46.012Z,6.98
2023-08-24T08:06:12.408Z,6.83
2023-08-24T08:08:38.820Z,7.31
2023-08-24T08:11:05.238Z,7.15
2023-08-24T08:13:32.785Z,7.23
2023-08-24T08:15:59.478Z,7.00
2023-08-24T08:18:25.885Z,7.29
2023-08-24T08:20:52.262Z,7.52
2023-08-24T08:23:18.668Z,7.52
2023-08-24T08:25:45.052Z,7.62
2023-08-24T08:28:11.430Z,7.79
2023-08-24T08:30:37.927Z,7.38
2023-08-24T08:33:04.363Z,7.59
2023-08-24T08:35:30.774Z,7.69
2023-08-24T08:37:57.152Z,7.68
2023-08-24T08:40:23.593Z,7.62
2023-08-24T08:42:50.048Z,7.88
2023-08-24T08:45:16.457Z,8.26
2023-08-24T08:47:42.934Z,8.47
2023-08-24T08:50:09.396Z,8.13
2023-08-24T08:52:35.852Z,7.51
2023-08-24T08:55:02.231Z,8.14
2023-08-24T08:57:29.457Z,8.00
2023-08-24T08:59:57.416Z,7.84
2023-08-24T09:02:23.805Z,7.89
2023-08-24T09:04:50.254Z,7.65
2023-08-24T09:07:16.666Z,7.33
2023-08-24T09:09:43.038Z,7.81
2023-08-24T09:12:09.447Z,7.89
2023-08-24T09:14:35.847Z,8.08
2023-08-24T09:17:02.229Z,7.80
2023-08-24T09:19:28.613Z,7.70
2023-08-24T09:21:54.994Z,8.03
2023-08-24T09:24:21.361Z,8.09
2023-08-24T09:26:47.746Z,8.22
2023-08-24T09:29:14.125Z,8.03
2023-08-24T09:31:40.505Z,8.51
2023-08-24T09:34:06.937Z,8.19
2023-08-24T09:36:33.317Z,8.20
2023-08-24T09:38:59.696Z,8.18
2023-08-24T09:41:26.064Z,7.82
2023-08-24T09:43:52.455Z,7.02
2023-08-24T09:46:18.861Z,6.69
2023-08-24T09:48:45.318Z,6.22
2023-08-24T09:51:11.694Z,6.48
2023-08-24T09:53:38.101Z,6.35
2023-08-24T09:56:04.487Z,6.25
2023-08-24T09:58:30.871Z,6.69
2023-08-24T10:00:57.327Z,6.67
2023-08-24T10:03:23.814Z,6.57
2023-08-24T10:05:57.844Z,6.40
2023-08-24T10:08:25.013Z,6.51
2023-08-24T10:10:51.384Z,6.63
2023-08-24T10:13:17.762Z,6.41
2023-08-24T10:15:44.212Z,6.46
2023-08-24T10:18:10.624Z,6.34
2023-08-24T10:20:37.012Z,6.04
2023-08-24T10:23:05.423Z,5.81
2023-08-24T10:25:32.006Z,6.67
2023-08-24T10:27:58.395Z,6.35
2023-08-24T10:30:24.775Z,5.93
2023-08-24T10:32:51.317Z,5.87
2023-08-24T10:35:17.977Z,6.14
2023-08-24T10:37:44.376Z,6.14
2023-08-24T10:40:10.754Z,5.89
2023-08-24T10:42:37.139Z,5.94
2023-08-24T10:45:03.549Z,5.80
2023-08-24T10:47:29.964Z,5.55
2023-08-24T10:49:56.373Z,5.21
2023-08-24T10:52:22.857Z,5.17
2023-08-24T10:54:49.365Z,5.54
2023-08-24T10:57:15.749Z,5.03
2023-08-24T10:59:50.935Z,5.16
2023-08-24T11:02:18.100Z,5.39
2023-08-24T11:04:44.507Z,5.43
2023-08-24T11:07:10.892Z,5.26
2023-08-24T11:09:37.276Z,5.55
2023-08-24T11:12:03.701Z,5.51
2023-08-24T11:14:30.093Z,5.36
2023-08-24T11:16:56.460Z,5.47
2023-08-24T11:19:22.840Z,5.43
2023-08-24T11:21:49.208Z,5.39
2023-08-24T11:24:15.596Z,5.36
2023-08-24T11:26:42.001Z,5.27
2023-08-24T11:29:08.390Z,5.48
2023-08-24T11:31:34.814Z,5.11
2023-08-24T11:34:01.218Z,5.17
2023-08-24T11:36:27.611Z,5.31
2023-08-24T11:38:53.977Z,5.32
2023-08-24T11:41:20.464Z,5.37
2023-08-24T11:43:46.972Z,5.21
2023-08-24T11:46:13.375Z,5.07
2023-08-24T11:48:39.781Z,5.20
2023-08-24T11:51:06.142Z,5.36
2023-08-24T11:53:32.529Z,5.37
2023-08-24T11:56:05.461Z,5.33
2023-08-24T11:58:32.299Z,5.27
2023-08-24T12:00:58.706Z,5.28
2023-08-24T12:03:25.167Z,5.35
2023-08-24T12:05:51.596Z,5.44
2023-08-24T12:08:17.968Z,4.99
2023-08-24T12:10:44.345Z,5.10
2023-08-24T12:13:12.861Z,5.30
2023-08-24T12:15:39.678Z,5.06
2023-08-24T12:18:06.208Z,5.34
2023-08-24T12:20:32.578Z,4.81
2023-08-24T12:22:58.945Z,4.89
2023-08-24T12:25:25.352Z,4.58
2023-08-24T12:27:51.840Z,4.48
2023-08-24T12:30:18.271Z,4.93
2023-08-24T12:32:44.710Z,4.88
2023-08-24T12:35:11.118Z,4.76
2023-08-24T12:37:37.491Z,5.11
2023-08-24T12:40:03.864Z,4.94
2023-08-24T12:42:30.250Z,5.12
2023-08-24T12:44:56.661Z,4.87
2023-08-24T12:47:23.062Z,4.94
2023-08-24T12:49:49.431Z,5.49
2023-08-24T12:52:15.811Z,5.11
2023-08-24T12:54:42.189Z,4.74
2023-08-24T12:57:08.574Z,5.71
2023-08-24T12:59:34.957Z,5.23
2023-08-24T13:02:01.529Z,5.21
2023-08-24T13:04:27.948Z,5.12
2023-08-24T13:06:54.385Z,5.09
2023-08-24T13:09:20.771Z,5.17
2023-08-24T13:11:47.165Z,4.84
2023-08-24T13:14:13.564Z,5.06
2023-08-24T13:16:40.021Z,4.98
2023-08-24T13:19:06.441Z,4.64
2023-08-24T13:21:32.837Z,4.84
2023-08-24T13:23:59.256Z,4.77
2023-08-24T13:26:25.695Z,4.73
2023-08-24T13:28:52.083Z,4.41
2023-08-24T13:31:18.552Z,4.88
2023-08-24T13:33:45.016Z,4.73
2023-08-24T13:36:11.393Z,4.67
2023-08-24T13:38:37.787Z,4.55
2023-08-24T13:41:04.175Z,5.13
2023-08-24T13:43:30.582Z,5.26
2023-08-24T13:45:57.060Z,4.79
2023-08-24T13:48:23.495Z,4.79
2023-08-24T13:50:49.886Z,5.06
2023-08-24T13:53:16.279Z,4.73
2023-08-24T13:55:42.660Z,4.48
2023-08-24T13:58:09.075Z,4.51
2023-08-24T14:00:35.480Z,4.76
2023-08-24T14:03:01.937Z,4.44
2023-08-24T14:05:28.378Z,4.32
2023-08-24T14:07:54.747Z,4.50
2023-08-24T14:10:21.123Z,4.37
2023-08-24T14:12:47.513Z,4.21
2023-08-24T14:15:13.903Z,4.66
2023-08-24T14:17:40.399Z,4.50
2023-08-24T14:20:06.880Z,4.57
2023-08-24T14:22:33.278Z,4.55
2023-08-24T14:24:59.656Z,4.26
2023-08-24T14:27:26.048Z,4.36
2023-08-24T14:29:52.457Z,4.27
2023-08-24T14:32:18.842Z,4.43
2023-08-24T14:34:45.234Z,4.39
2023-08-24T14:37:11.632Z,4.32
2023-08-24T14:39:38.035Z,4.39
2023-08-24T14:42:04.425Z,4.48
2023-08-24T14:44:31.695Z,4.47
2023-08-24T14:46:58.170Z,4.42
2023-08-24T14:49:24.719Z,4.51
2023-08-24T14:51:51.163Z,4.46
2023-08-24T14:54:17.538Z,4.55
2023-08-24T14:56:43.911Z,4.33
2023-08-24T14:59:10.295Z,4.34
2023-08-24T15:01:36.857Z,4.49
2023-08-24T15:04:03.295Z,4.55
2023-08-24T15:06:29.726Z,4.68
2023-08-24T15:08:56.146Z,4.70
2023-08-24T15:11:22.523Z,4.63
2023-08-24T15:13:49.108Z,4.59
2023-08-24T15:16:15.510Z,4.87
2023-08-24T15:18:41.922Z,4.77
2023-08-24T15:21:08.314Z,4.70
2023-08-24T15:23:34.690Z,4.60
2023-08-24T15:26:01.118Z,4.76
2023-08-24T15:28:27.487Z,4.65
2023-08-24T15:30:53.893Z,4.77
2023-08-24T15:33:20.315Z,4.58
2023-08-24T15:35:46.761Z,4.28
2023-08-24T15:38:13.142Z,4.51
2023-08-24T15:40:39.518Z,4.46
2023-08-24T15:43:05.941Z,4.49
2023-08-24T15:45:32.403Z,4.32
2023-08-24T15:47:58.900Z,4.33
2023-08-24T15:50:25.363Z,4.39
2023-08-24T15:52:51.932Z,4.56
2023-08-24T15:55:18.424Z,4.37
2023-08-24T15:57:44.804Z,4.59
2023-08-24T16:00:11.213Z,4.28
2023-08-24T16:02:37.603Z,4.65
2023-08-24T16:05:04.003Z,4.37
2023-08-24T16:07:30.411Z,4.44
2023-08-24T16:09:56.789Z,4.54
2023-08-24T16:12:23.148Z,4.36
2023-08-24T16:14:49.524Z,4.90
2023-08-24T16:17:16.959Z,4.70
2023-08-24T16:19:43.336Z,4.82
2023-08-24T16:22:09.736Z,4.63
2023-08-24T16:24:36.102Z,4.40
2023-08-24T16:27:02.472Z,4.63
2023-08-24T16:29:29.034Z,4.38
2023-08-24T16:31:55.421Z,4.54
2023-08-24T16:34:21.786Z,4.51
2023-08-24T16:36:48.163Z,4.18
2023-08-24T16:39:14.538Z,4.29
2023-08-24T16:41:40.958Z,4.37
2023-08-24T16:44:07.364Z,4.14
2023-08-24T16:46:33.745Z,3.87
2023-08-24T16:49:00.131Z,3.95
2023-08-24T16:51:26.519Z,4.14
2023-08-24T16:53:52.906Z,4.32
2023-08-24T16:56:19.277Z,4.11
2023-08-24T16:58:45.705Z,4.09
2023-08-24T17:01:12.097Z,4.21
2023-08-24T17:03:38.495Z,4.18
2023-08-24T17:06:04.899Z,3.78
2023-08-24T17:08:31.279Z,3.89
2023-08-24T17:10:57.659Z,4.08
2023-08-24T17:13:24.052Z,4.02
2023-08-24T17:15:50.415Z,3.84
2023-08-24T17:18:17.006Z,3.94
2023-08-24T17:20:43.469Z,4.05
2023-08-24T17:23:09.865Z,4.00
2023-08-24T17:25:36.493Z,3.81
2023-08-24T17:28:02.852Z,3.90
2023-08-24T17:30:29.251Z,3.85
2023-08-24T17:32:57.255Z,3.64
2023-08-24T17:35:23.955Z,3.69
2023-08-24T17:37:50.400Z,3.79
2023-08-24T17:40:16.896Z,3.59
2023-08-24T17:42:43.290Z,3.70
2023-08-24T17:45:09.778Z,3.57
2023-08-24T17:47:36.255Z,3.73
2023-08-24T17:50:02.684Z,3.41
2023-08-24T17:52:29.087Z,3.55
2023-08-24T17:54:55.471Z,3.35
2023-08-24T17:57:21.848Z,3.44
2023-08-24T17:59:48.213Z,3.62
2023-08-24T18:02:14.595Z,3.72
2023-08-24T18:04:40.972Z,3.29
2023-08-24T18:07:07.366Z,3.39
2023-08-24T18:09:33.747Z,3.20
2023-08-24T18:12:00.152Z,2.92
2023-08-24T18:14:26.541Z,3.67
2023-08-24T18:16:52.915Z,3.84
2023-08-24T18:19:19.352Z,3.90
2023-08-24T18:21:46.648Z,3.67
2023-08-24T18:24:13.060Z,3.51
2023-08-24T18:26:39.449Z,3.62
2023-08-24T18:29:05.828Z,3.35
2023-08-24T18:31:32.236Z,3.50
2023-08-24T18:33:58.634Z,3.35
2023-08-24T18:36:25.039Z,3.34
2023-08-24T18:38:51.424Z,3.24
2023-08-24T18:41:17.805Z,3.31
2023-08-24T18:43:44.183Z,3.30
2023-08-24T18:46:10.601Z,3.50
2023-08-24T18:48:37.042Z,3.42
2023-08-24T18:51:03.440Z,3.47
2023-08-24T18:53:29.939Z,3.18
2023-08-24T18:55:56.476Z,3.26
2023-08-24T18:58:23.050Z,3.33
2023-08-24T19:00:49.471Z,3.43
2023-08-24T19:03:15.857Z,3.43
2023-08-24T19:05:43.404Z,3.44
2023-08-24T19:08:09.857Z,3.40
2023-08-24T19:10:36.236Z,3.30
2023-08-24T19:13:02.626Z,3.12
2023-08-24T19:15:30.102Z,3.48
2023-08-24T19:17:56.922Z,3.54
2023-08-24T19:20:23.552Z,3.52
2023-08-24T19:22:49.951Z,3.53
2023-08-24T19:25:16.347Z,3.48
2023-08-24T19:27:42.731Z,3.69
2023-08-24T19:30:09.132Z,3.60
2023-08-24T19:32:35.547Z,3.74
2023-08-24T19:35:01.975Z,3.46
2023-08-24T19:37:28.362Z,3.62
2023-08-24T19:39:54.745Z,3.72
2023-08-24T19:42:21.124Z,3.81
2023-08-24T19:44:47.506Z,3.47
2023-08-24T19:47:13.887Z,3.59
2023-08-24T19:49:40.306Z,3.81
2023-08-24T19:52:06.850Z,3.53
2023-08-24T19:54:33.228Z,3.62
2023-08-24T19:56:59.601Z,3.68
2023-08-24T19:59:25.977Z,3.76
2023-08-24T20:01:52.417Z,3.74
2023-08-24T20:04:18.786Z,3.29
2023-08-24T20:06:45.164Z,3.40
2023-08-24T20:09:11.566Z,3.55
2023-08-24T20:11:37.936Z,3.42
2023-08-24T20:14:04.320Z,3.51
2023-08-24T20:16:30.697Z,3.27
2023-08-24T20:18:57.092Z,3.45
2023-08-24T20:21:23.558Z,3.45
2023-08-24T20:23:49.935Z,3.43
2023-08-24T20:26:16.327Z,3.52
2023-08-24T20:28:42.697Z,3.59
2023-08-24T20:31:09.239Z,3.63
2023-08-24T20:33:35.735Z,3.58
2023-08-24T20:36:02.096Z,3.75
2023-08-24T20:38:28.480Z,3.59
2023-08-24T20:40:54.856Z,3.67
2023-08-24T20:43:21.236Z,3.56
2023-08-24T20:45:47.660Z,3.26
2023-08-24T20:48:14.147Z,3.42
2023-08-24T20:50:40.564Z,3.29
2023-08-24T20:53:06.958Z,3.82
2023-08-24T20:55:33.343Z,3.49
2023-08-24T20:57:59.712Z,3.31
2023-08-24T21:00:26.098Z,3.36
2023-08-24T21:02:52.514Z,3.38
2023-08-24T21:05:18.957Z,3.47
2023-08-24T21:07:45.353Z,3.27
2023-08-24T21:10:11.737Z,3.22
2023-08-24T21:12:38.141Z,3.26
2023-08-24T21:15:04.517Z,3.18
2023-08-24T21:17:30.977Z,3.44
2023-08-24T21:19:57.386Z,3.63
2023-08-24T21:22:23.772Z,3.35
2023-08-24T21:24:50.159Z,3.32
2023-08-24T21:27:16.554Z,3.35
2023-08-24T21:29:42.933Z,3.37
2023-08-24T21:32:09.317Z,3.22
2023-08-24T21:34:35.715Z,3.10
2023-08-24T21:37:02.121Z,3.16
2023-08-24T21:39:28.513Z,3.08
2023-08-24T21:41:54.885Z,3.15
2023-08-24T21:44:21.248Z,3.14
2023-08-24T21:46:47.634Z,3.27
2023-08-24T21:49:14.031Z,3.33
2023-08-24T21:51:40.457Z,3.24
2023-08-24T21:54:06.850Z,3.35
2023-08-24T21:56:33.311Z,3.57
2023-08-24T21:58:59.698Z,3.39
2023-08-24T22:01:26.126Z,3.28
2023-08-24T22:03:52.650Z,3.42
2023-08-24T22:06:19.041Z,3.34
2023-08-24T22:08:45.412Z,3.27
2023-08-24T22:11:11.789Z,2.85
2023-08-24T22:13:38.159Z,3.14
2023-08-24T22:16:04.567Z,3.02
2023-08-24T22:18:30.957Z,3.25
2023-08-24T22:20:57.342Z,3.05
2023-08-24T22:23:23.734Z,2.84
2023-08-24T22:25:50.119Z,3.15
2023-08-24T22:28:16.494Z,3.08
2023-08-24T22:30:42.872Z,3.16
2023-08-24T22:33:09.274Z,3.19
2023-08-24T22:35:35.673Z,3.22
2023-08-24T22:38:02.048Z,3.38
2023-08-24T22:40:28.469Z,3.32
2023-08-24T22:42:54.883Z,3.12
2023-08-24T22:45:21.248Z,3.29
2023-08-24T22:47:47.675Z,3.20
2023-08-24T22:50:14.083Z,3.16
2023-08-24T22:52:40.459Z,3.48
2023-08-24T22:55:06.858Z,3.34
2023-08-24T22:57:33.247Z,3.13
2023-08-24T22:59:59.633Z,3.44
2023-08-24T23:02:26.022Z,3.45
2023-08-24T23:04:52.419Z,3.42
2023-08-24T23:07:18.840Z,3.68
2023-08-24T23:09:45.212Z,3.66
2023-08-24T23:12:11.614Z,3.49
2023-08-24T23:14:37.976Z,3.69
2023-08-24T23:17:04.440Z,3.51
2023-08-24T23:19:30.810Z,3.90
2023-08-24T23:21:57.213Z,3.83
2023-08-24T23:26:52.879Z,3.86
2023-08-24T23:29:19.247Z,3.94
2023-08-24T23:31:45.709Z,3.91
2023-08-24T23:34:12.180Z,3.94
2023-08-24T23:36:38.561Z,4.11
2023-08-24T23:39:04.945Z,4.11
2023-08-24T23:41:31.337Z,4.11
2023-08-24T23:43:57.714Z,4.08
2023-08-24T23:46:24.090Z,4.23
2023-08-24T23:48:50.466Z,4.07
2023-08-24T23:51:16.835Z,3.95
2023-08-24T23:53:43.224Z,4.31
2023-08-24T23:56:09.604Z,4.34
2023-08-24T23:58:35.992Z,4.28
